EDW150 LSZH-EDDN
Flight info
| Callsign | EDW150 |
|---|---|
| Flight time | 0h 39m |
| Altitude | 28000 |
| Route | DEGES Z1 SUDEN/N0396F230 Z79 GUPIN N869 LETKU LETKU1V |
| Aircraft | A320/M-SDE3FGHIRWY/LB1 |
Departure
| Time | 2026-05-06 19:03 |
|---|---|
| Airport | Zürich Airport (LSZH) |
Arrival
| Time | 2026-05-06 19:42 |
|---|---|
| Airport | Nuremberg Airport (EDDN) |
| Time | Latitude | Longitude | Altitude | Speed | Heading |
|---|---|---|---|---|---|
| 2026-05-06 18:31 | 47.45170 | 8.55804 | 1411 ft | 0 kts | 187° |
| 2026-05-06 18:52 | 47.45178 | 8.55806 | 1414 ft | 4 kts | 187° |
| 2026-05-06 18:52 | 47.45205 | 8.55812 | 1412 ft | 4 kts | 191° |
| 2026-05-06 18:52 | 47.45231 | 8.55821 | 1416 ft | 4 kts | 202° |
| 2026-05-06 18:52 | 47.45252 | 8.55840 | 1416 ft | 4 kts | 242° |
| 2026-05-06 18:53 | 47.45256 | 8.55856 | 1414 ft | 1 kts | 276° |
| 2026-05-06 18:56 | 47.45256 | 8.55846 | 1415 ft | 4 kts | 276° |
| 2026-05-06 18:56 | 47.45261 | 8.55787 | 1409 ft | 6 kts | 276° |
| 2026-05-06 18:56 | 47.45267 | 8.55697 | 1407 ft | 11 kts | 276° |
| 2026-05-06 18:56 | 47.45275 | 8.55590 | 1410 ft | 10 kts | 276° |
| 2026-05-06 18:57 | 47.45307 | 8.55480 | 1408 ft | 14 kts | 300° |
| 2026-05-06 18:57 | 47.45378 | 8.55385 | 1407 ft | 15 kts | 336° |
| 2026-05-06 18:57 | 47.45469 | 8.55322 | 1399 ft | 15 kts | 335° |
| 2026-05-06 18:57 | 47.45564 | 8.55258 | 1403 ft | 15 kts | 335° |
| 2026-05-06 18:58 | 47.45666 | 8.55189 | 1401 ft | 18 kts | 335° |
| 2026-05-06 18:58 | 47.45790 | 8.55101 | 1399 ft | 21 kts | 334° |
| 2026-05-06 18:58 | 47.45930 | 8.55002 | 1398 ft | 23 kts | 335° |
| 2026-05-06 18:58 | 47.46081 | 8.54900 | 1388 ft | 22 kts | 335° |
| 2026-05-06 18:59 | 47.46221 | 8.54802 | 1387 ft | 22 kts | 334° |
| 2026-05-06 18:59 | 47.46370 | 8.54697 | 1382 ft | 24 kts | 335° |
| 2026-05-06 18:59 | 47.46491 | 8.54618 | 1385 ft | 18 kts | 335° |
| 2026-05-06 18:59 | 47.46607 | 8.54535 | 1385 ft | 20 kts | 333° |
| 2026-05-06 19:00 | 47.46742 | 8.54445 | 1380 ft | 23 kts | 339° |
| 2026-05-06 19:00 | 47.46899 | 8.54350 | 1380 ft | 25 kts | 334° |
| 2026-05-06 19:00 | 47.47048 | 8.54248 | 1384 ft | 22 kts | 335° |
| 2026-05-06 19:00 | 47.47139 | 8.54185 | 1384 ft | 22 kts | 334° |
| 2026-05-06 19:01 | 47.47331 | 8.54053 | 1386 ft | 23 kts | 335° |
| 2026-05-06 19:01 | 47.47476 | 8.53953 | 1393 ft | 21 kts | 335° |
| 2026-05-06 19:01 | 47.47595 | 8.53852 | 1396 ft | 19 kts | 308° |
| 2026-05-06 19:01 | 47.47588 | 8.53678 | 1401 ft | 13 kts | 246° |
| 2026-05-06 19:02 | 47.47554 | 8.53612 | 1402 ft | 6 kts | 189° |
| 2026-05-06 19:02 | 47.47512 | 8.53635 | 1403 ft | 7 kts | 154° |
| 2026-05-06 19:02 | 47.47391 | 8.53719 | 1394 ft | 48 kts | 155° |
| 2026-05-06 19:02 | 47.46855 | 8.54086 | 1383 ft | 118 kts | 155° |
| 2026-05-06 19:03 | 47.45947 | 8.54706 | 1447 ft | 162 kts | 158° |
| 2026-05-06 19:03 | 47.44936 | 8.55399 | 2135 ft | 160 kts | 159° |
| 2026-05-06 19:03 | 47.43928 | 8.56102 | 2864 ft | 161 kts | 153° |
| 2026-05-06 19:03 | 47.43126 | 8.57277 | 3470 ft | 170 kts | 123° |
| 2026-05-06 19:04 | 47.42804 | 8.58992 | 4049 ft | 177 kts | 89° |
| 2026-05-06 19:04 | 47.43116 | 8.60738 | 4596 ft | 178 kts | 56° |
| 2026-05-06 19:04 | 47.43974 | 8.62130 | 4912 ft | 194 kts | 38° |
| 2026-05-06 19:04 | 47.45022 | 8.63534 | 5178 ft | 217 kts | 40° |
| 2026-05-06 19:05 | 47.45975 | 8.65422 | 5468 ft | 243 kts | 66° |
| 2026-05-06 19:05 | 47.46306 | 8.67911 | 6092 ft | 250 kts | 90° |
| 2026-05-06 19:05 | 47.46363 | 8.70573 | 6572 ft | 272 kts | 90° |
| 2026-05-06 19:05 | 47.46434 | 8.73487 | 7034 ft | 292 kts | 89° |
| 2026-05-06 19:06 | 47.46514 | 8.76528 | 7838 ft | 298 kts | 89° |
| 2026-05-06 19:06 | 47.46606 | 8.79612 | 8697 ft | 304 kts | 89° |
| 2026-05-06 19:06 | 47.46603 | 8.82756 | 9563 ft | 307 kts | 100° |
| 2026-05-06 19:06 | 47.46197 | 8.85861 | 10398 ft | 309 kts | 105° |
| 2026-05-06 19:07 | 47.45747 | 8.88964 | 11215 ft | 310 kts | 105° |
| 2026-05-06 19:07 | 47.45442 | 8.91038 | 11726 ft | 315 kts | 105° |
| 2026-05-06 19:07 | 47.44789 | 8.95481 | 12076 ft | 346 kts | 104° |
| 2026-05-06 19:07 | 47.44270 | 8.99064 | 12342 ft | 366 kts | 104° |
| 2026-05-06 19:08 | 47.43738 | 9.02780 | 12985 ft | 373 kts | 104° |
| 2026-05-06 19:08 | 47.43211 | 9.06494 | 13714 ft | 376 kts | 103° |
| 2026-05-06 19:08 | 47.42671 | 9.10286 | 14405 ft | 379 kts | 104° |
| 2026-05-06 19:08 | 47.42146 | 9.14108 | 15070 ft | 382 kts | 101° |
| 2026-05-06 19:09 | 47.42012 | 9.18053 | 15732 ft | 388 kts | 88° |
| 2026-05-06 19:09 | 47.42434 | 9.22017 | 16363 ft | 395 kts | 77° |
| 2026-05-06 19:09 | 47.43431 | 9.25825 | 16997 ft | 401 kts | 63° |
| 2026-05-06 19:09 | 47.44822 | 9.29419 | 17666 ft | 405 kts | 61° |
| 2026-05-06 19:10 | 47.46238 | 9.33035 | 18286 ft | 409 kts | 60° |
| 2026-05-06 19:10 | 47.47907 | 9.36466 | 18823 ft | 414 kts | 50° |
| 2026-05-06 19:10 | 47.50000 | 9.39421 | 19347 ft | 419 kts | 38° |
| 2026-05-06 19:10 | 47.52461 | 9.41766 | 19884 ft | 423 kts | 27° |
| 2026-05-06 19:11 | 47.55192 | 9.43400 | 20417 ft | 426 kts | 17° |
| 2026-05-06 19:11 | 47.58051 | 9.44652 | 20938 ft | 430 kts | 11° |
| 2026-05-06 19:11 | 47.60985 | 9.45268 | 21433 ft | 432 kts | 1° |
| 2026-05-06 19:11 | 47.64005 | 9.45426 | 21911 ft | 436 kts | 0° |
| 2026-05-06 19:12 | 47.67052 | 9.45572 | 22395 ft | 440 kts | 0° |
| 2026-05-06 19:12 | 47.70125 | 9.45728 | 22862 ft | 444 kts | 0° |
| 2026-05-06 19:12 | 47.73232 | 9.45896 | 23323 ft | 447 kts | 0° |
| 2026-05-06 19:12 | 47.76356 | 9.46070 | 23727 ft | 451 kts | 0° |
| 2026-05-06 19:13 | 47.79504 | 9.46244 | 24094 ft | 454 kts | 0° |
| 2026-05-06 19:13 | 47.82633 | 9.46371 | 24441 ft | 457 kts | 359° |
| 2026-05-06 19:13 | 47.85833 | 9.46407 | 24818 ft | 460 kts | 358° |
| 2026-05-06 19:13 | 47.89040 | 9.46383 | 25183 ft | 462 kts | 357° |
| 2026-05-06 19:14 | 47.92270 | 9.46328 | 25524 ft | 465 kts | 357° |
| 2026-05-06 19:14 | 47.95511 | 9.46267 | 25857 ft | 468 kts | 357° |
| 2026-05-06 19:14 | 47.98782 | 9.46221 | 26182 ft | 472 kts | 357° |
| 2026-05-06 19:14 | 48.02075 | 9.46199 | 26508 ft | 475 kts | 357° |
| 2026-05-06 19:15 | 48.05390 | 9.46195 | 26818 ft | 478 kts | 358° |
| 2026-05-06 19:15 | 48.08723 | 9.46199 | 27131 ft | 480 kts | 358° |
| 2026-05-06 19:15 | 48.12071 | 9.46201 | 27431 ft | 483 kts | 358° |
| 2026-05-06 19:15 | 48.15450 | 9.46198 | 27729 ft | 486 kts | 357° |
| 2026-05-06 19:16 | 48.18835 | 9.46195 | 27869 ft | 487 kts | 357° |
| 2026-05-06 19:16 | 48.22228 | 9.46196 | 27886 ft | 488 kts | 357° |
| 2026-05-06 19:16 | 48.25581 | 9.46199 | 27885 ft | 488 kts | 358° |
| 2026-05-06 19:16 | 48.28963 | 9.46204 | 27882 ft | 483 kts | 359° |
| 2026-05-06 19:17 | 48.32307 | 9.46209 | 27885 ft | 479 kts | 359° |
| 2026-05-06 19:17 | 48.35638 | 9.46211 | 27881 ft | 478 kts | 358° |
| 2026-05-06 19:17 | 48.38964 | 9.46211 | 27883 ft | 478 kts | 358° |
| 2026-05-06 19:17 | 48.42289 | 9.46215 | 27888 ft | 478 kts | 359° |
| 2026-05-06 19:18 | 48.45614 | 9.46219 | 27874 ft | 478 kts | 359° |
| 2026-05-06 19:18 | 48.48940 | 9.46279 | 27874 ft | 478 kts | 2° |
| 2026-05-06 19:18 | 48.52237 | 9.46975 | 27869 ft | 479 kts | 12° |
| 2026-05-06 19:18 | 48.55429 | 9.48462 | 27872 ft | 480 kts | 22° |
| 2026-05-06 19:19 | 48.58432 | 9.50643 | 27869 ft | 479 kts | 28° |
| 2026-05-06 19:19 | 48.61376 | 9.53006 | 27863 ft | 479 kts | 28° |
| 2026-05-06 19:19 | 48.64318 | 9.55374 | 27860 ft | 479 kts | 28° |
| 2026-05-06 19:19 | 48.67220 | 9.57717 | 27861 ft | 479 kts | 28° |
| 2026-05-06 19:20 | 48.70159 | 9.60097 | 27869 ft | 479 kts | 29° |
| 2026-05-06 19:20 | 48.73087 | 9.62469 | 27836 ft | 478 kts | 29° |
| 2026-05-06 19:20 | 48.76033 | 9.64856 | 27832 ft | 480 kts | 29° |
| 2026-05-06 19:20 | 48.78979 | 9.67243 | 27826 ft | 481 kts | 29° |
| 2026-05-06 19:21 | 48.81930 | 9.69639 | 27830 ft | 481 kts | 29° |
| 2026-05-06 19:21 | 48.84879 | 9.72054 | 27826 ft | 482 kts | 31° |
| 2026-05-06 19:21 | 48.87650 | 9.74894 | 27818 ft | 480 kts | 40° |
| 2026-05-06 19:21 | 48.90091 | 9.78336 | 27808 ft | 477 kts | 50° |
| 2026-05-06 19:22 | 48.92209 | 9.82203 | 27823 ft | 475 kts | 53° |
| 2026-05-06 19:22 | 48.93588 | 9.84793 | 27825 ft | 475 kts | 53° |
| 2026-05-06 19:22 | 48.95673 | 9.88699 | 27829 ft | 475 kts | 53° |
| 2026-05-06 19:22 | 48.97758 | 9.92602 | 27830 ft | 475 kts | 53° |
| 2026-05-06 19:23 | 48.99845 | 9.96515 | 27833 ft | 475 kts | 53° |
| 2026-05-06 19:23 | 49.02601 | 10.01695 | 27288 ft | 475 kts | 54° |
| 2026-05-06 19:23 | 49.04003 | 10.04335 | 26752 ft | 472 kts | 54° |
| 2026-05-06 19:23 | 49.06055 | 10.08201 | 25988 ft | 468 kts | 54° |
| 2026-05-06 19:24 | 49.08095 | 10.12057 | 25238 ft | 464 kts | 54° |
| 2026-05-06 19:24 | 49.10102 | 10.15866 | 24511 ft | 459 kts | 54° |
| 2026-05-06 19:24 | 49.12093 | 10.19664 | 23802 ft | 455 kts | 54° |
| 2026-05-06 19:24 | 49.14045 | 10.23362 | 23037 ft | 453 kts | 53° |
| 2026-05-06 19:25 | 49.16214 | 10.26848 | 22205 ft | 452 kts | 48° |
| 2026-05-06 19:25 | 49.18419 | 10.30257 | 21407 ft | 450 kts | 48° |
| 2026-05-06 19:25 | 49.20610 | 10.33645 | 20658 ft | 448 kts | 47° |
| 2026-05-06 19:25 | 49.22795 | 10.37024 | 19881 ft | 446 kts | 47° |
| 2026-05-06 19:26 | 49.24975 | 10.40395 | 19142 ft | 444 kts | 47° |
| 2026-05-06 19:26 | 49.27149 | 10.43734 | 18423 ft | 442 kts | 46° |
| 2026-05-06 19:26 | 49.29314 | 10.47047 | 17801 ft | 437 kts | 46° |
| 2026-05-06 19:26 | 49.31454 | 10.50315 | 17258 ft | 430 kts | 45° |
| 2026-05-06 19:27 | 49.33558 | 10.53524 | 16730 ft | 424 kts | 45° |
| 2026-05-06 19:27 | 49.35631 | 10.56692 | 16213 ft | 418 kts | 45° |
| 2026-05-06 19:27 | 49.37665 | 10.59824 | 15790 ft | 410 kts | 46° |
| 2026-05-06 19:27 | 49.39626 | 10.62952 | 15409 ft | 401 kts | 51° |
| 2026-05-06 19:28 | 49.41170 | 10.66453 | 15030 ft | 392 kts | 63° |
| 2026-05-06 19:28 | 49.42182 | 10.70296 | 14667 ft | 386 kts | 76° |
| 2026-05-06 19:28 | 49.42667 | 10.74317 | 14302 ft | 381 kts | 87° |
| 2026-05-06 19:28 | 49.42636 | 10.78304 | 13937 ft | 376 kts | 99° |
| 2026-05-06 19:29 | 49.42266 | 10.82269 | 13570 ft | 374 kts | 101° |
| 2026-05-06 19:29 | 49.41881 | 10.86212 | 13163 ft | 372 kts | 101° |
| 2026-05-06 19:29 | 49.41497 | 10.90133 | 12765 ft | 370 kts | 101° |
| 2026-05-06 19:29 | 49.41114 | 10.94035 | 12374 ft | 369 kts | 101° |
| 2026-05-06 19:30 | 49.40734 | 10.97927 | 11985 ft | 367 kts | 101° |
| 2026-05-06 19:30 | 49.40359 | 11.01789 | 11607 ft | 365 kts | 101° |
| 2026-05-06 19:30 | 49.39986 | 11.05630 | 11224 ft | 363 kts | 100° |
| 2026-05-06 19:30 | 49.39610 | 11.09454 | 10859 ft | 358 kts | 100° |
| 2026-05-06 19:31 | 49.39254 | 11.13096 | 10717 ft | 331 kts | 101° |
| 2026-05-06 19:31 | 49.38926 | 11.16453 | 10518 ft | 308 kts | 101° |
| 2026-05-06 19:31 | 49.38292 | 11.22780 | 9363 ft | 295 kts | 101° |
| 2026-05-06 19:32 | 49.37974 | 11.25868 | 8819 ft | 293 kts | 101° |
| 2026-05-06 19:32 | 49.37658 | 11.28962 | 8305 ft | 295 kts | 100° |
| 2026-05-06 19:32 | 49.37341 | 11.32089 | 7796 ft | 297 kts | 101° |
| 2026-05-06 19:32 | 49.37024 | 11.35193 | 7301 ft | 299 kts | 100° |
| 2026-05-06 19:33 | 49.36705 | 11.38351 | 6802 ft | 301 kts | 100° |
| 2026-05-06 19:33 | 49.36391 | 11.41484 | 6392 ft | 292 kts | 100° |
| 2026-05-06 19:33 | 49.36081 | 11.44547 | 6013 ft | 289 kts | 100° |
| 2026-05-06 19:33 | 49.35845 | 11.47594 | 5623 ft | 287 kts | 88° |
| 2026-05-06 19:34 | 49.36329 | 11.50521 | 5252 ft | 283 kts | 59° |
| 2026-05-06 19:34 | 49.37601 | 11.52716 | 5012 ft | 270 kts | 30° |
| 2026-05-06 19:34 | 49.39246 | 11.53793 | 5010 ft | 247 kts | 9° |
| 2026-05-06 19:34 | 49.40878 | 11.54006 | 5011 ft | 227 kts | 348° |
| 2026-05-06 19:35 | 49.42281 | 11.53088 | 5016 ft | 219 kts | 320° |
| 2026-05-06 19:35 | 49.43443 | 11.51588 | 5016 ft | 218 kts | 315° |
| 2026-05-06 19:35 | 49.44559 | 11.50007 | 5024 ft | 218 kts | 315° |
| 2026-05-06 19:35 | 49.45522 | 11.48349 | 5015 ft | 202 kts | 298° |
| 2026-05-06 19:36 | 49.45994 | 11.46398 | 5047 ft | 193 kts | 279° |
| 2026-05-06 19:36 | 49.46201 | 11.44363 | 5029 ft | 193 kts | 278° |
| 2026-05-06 19:36 | 49.46408 | 11.42331 | 5010 ft | 192 kts | 278° |
| 2026-05-06 19:36 | 49.46615 | 11.40294 | 4950 ft | 193 kts | 278° |
| 2026-05-06 19:37 | 49.46822 | 11.38259 | 4747 ft | 192 kts | 278° |
| 2026-05-06 19:37 | 49.47027 | 11.36230 | 4511 ft | 191 kts | 279° |
| 2026-05-06 19:37 | 49.47230 | 11.34227 | 4255 ft | 188 kts | 278° |
| 2026-05-06 19:37 | 49.47429 | 11.32259 | 4000 ft | 183 kts | 279° |
| 2026-05-06 19:38 | 49.47617 | 11.30394 | 3760 ft | 168 kts | 279° |
| 2026-05-06 19:38 | 49.47782 | 11.28756 | 3564 ft | 147 kts | 279° |
| 2026-05-06 19:38 | 49.47933 | 11.27257 | 3371 ft | 138 kts | 279° |
| 2026-05-06 19:38 | 49.48077 | 11.25820 | 3190 ft | 135 kts | 279° |
| 2026-05-06 19:39 | 49.48219 | 11.24400 | 3024 ft | 134 kts | 278° |
| 2026-05-06 19:39 | 49.48361 | 11.22986 | 2842 ft | 133 kts | 277° |
| 2026-05-06 19:39 | 49.48501 | 11.21586 | 2664 ft | 132 kts | 277° |
| 2026-05-06 19:39 | 49.48640 | 11.20191 | 2483 ft | 132 kts | 277° |
| 2026-05-06 19:40 | 49.48780 | 11.18798 | 2310 ft | 131 kts | 277° |
| 2026-05-06 19:40 | 49.48919 | 11.17398 | 2096 ft | 134 kts | 276° |
| 2026-05-06 19:40 | 49.49059 | 11.15987 | 1940 ft | 134 kts | 277° |
| 2026-05-06 19:40 | 49.49203 | 11.14551 | 1753 ft | 137 kts | 277° |
| 2026-05-06 19:41 | 49.49349 | 11.13100 | 1552 ft | 138 kts | 275° |
| 2026-05-06 19:41 | 49.49488 | 11.11660 | 1363 ft | 138 kts | 276° |
| 2026-05-06 19:41 | 49.49635 | 11.10204 | 1178 ft | 138 kts | 274° |
| 2026-05-06 19:41 | 49.49777 | 11.08756 | 1043 ft | 130 kts | 274° |
| 2026-05-06 19:42 | 49.49890 | 11.07600 | 1024 ft | 85 kts | 278° |
| 2026-05-06 19:42 | 49.49940 | 11.07087 | 1024 ft | 23 kts | 268° |
| 2026-05-06 19:42 | 49.49863 | 11.07022 | 1022 ft | 15 kts | 159° |
| 2026-05-06 19:42 | 49.49827 | 11.07044 | 1021 ft | 0 kts | 159° |
| 2026-05-06 19:43 | 49.49819 | 11.07048 | 1021 ft | 5 kts | 159° |
| 2026-05-06 19:43 | 49.49772 | 11.07078 | 1021 ft | 9 kts | 153° |
| 2026-05-06 19:43 | 49.49742 | 11.07145 | 1022 ft | 4 kts | 103° |
| 2026-05-06 19:43 | 49.49736 | 11.07189 | 1022 ft | 6 kts | 103° |
| 2026-05-06 19:44 | 49.49704 | 11.07234 | 1023 ft | 5 kts | 158° |
| 2026-05-06 19:44 | 49.49666 | 11.07227 | 1020 ft | 6 kts | 186° |
| 2026-05-06 19:44 | 49.49636 | 11.07270 | 1025 ft | 7 kts | 110° |
| 2026-05-06 19:44 | 49.49627 | 11.07354 | 1023 ft | 9 kts | 99° |
| 2026-05-06 19:45 | 49.49616 | 11.07461 | 1023 ft | 10 kts | 98° |
| 2026-05-06 19:45 | 49.49607 | 11.07557 | 1025 ft | 8 kts | 98° |
| 2026-05-06 19:45 | 49.49599 | 11.07634 | 1024 ft | 7 kts | 99° |
| 2026-05-06 19:45 | 49.49562 | 11.07668 | 1026 ft | 7 kts | 185° |
| 2026-05-06 19:46 | 49.49532 | 11.07661 | 1026 ft | 3 kts | 188° |
| 2026-05-06 19:46 | 49.49527 | 11.07660 | 1024 ft | 0 kts | 188° |